sensor_id;sensor_type;location;lat;lon;timestamp;temperature;humidity
22069;DHT22;13887;57.196;-2.100;2024-03-23T00:54:45;7.90;66.73
22069;DHT22;13887;57.196;-2.100;2024-03-23T00:57:11;7.90;66.98
22069;DHT22;13887;57.196;-2.100;2024-03-23T00:59:37;7.89;66.94
22069;DHT22;13887;57.196;-2.100;2024-03-23T01:02:03;7.89;67.27
22069;DHT22;13887;57.196;-2.100;2024-03-23T01:04:29;7.90;67.22
22069;DHT22;13887;57.196;-2.100;2024-03-23T01:06:55;7.90;67.46
22069;DHT22;13887;57.196;-2.100;2024-03-23T01:09:21;7.89;67.30
22069;DHT22;13887;57.196;-2.100;2024-03-23T01:11:48;7.89;67.33
22069;DHT22;13887;57.196;-2.100;2024-03-23T01:14:14;7.90;67.46
22069;DHT22;13887;57.196;-2.100;2024-03-23T01:16:40;7.87;66.84
22069;DHT22;13887;57.196;-2.100;2024-03-23T01:19:06;7.85;66.59
22069;DHT22;13887;57.196;-2.100;2024-03-23T01:21:32;7.84;67.51
22069;DHT22;13887;57.196;-2.100;2024-03-23T01:23:58;7.86;66.98
22069;DHT22;13887;57.196;-2.100;2024-03-23T01:26:24;7.86;67.52
22069;DHT22;13887;57.196;-2.100;2024-03-23T01:28:50;7.87;67.20
22069;DHT22;13887;57.196;-2.100;2024-03-23T01:31:16;7.87;67.41
22069;DHT22;13887;57.196;-2.100;2024-03-23T01:33:42;7.86;67.54
22069;DHT22;13887;57.196;-2.100;2024-03-23T01:36:08;7.82;67.47
22069;DHT22;13887;57.196;-2.100;2024-03-23T01:38:34;7.83;67.51
22069;DHT22;13887;57.196;-2.100;2024-03-23T01:41:00;7.82;67.86
22069;DHT22;13887;57.196;-2.100;2024-03-23T01:43:26;7.82;67.81
22069;DHT22;13887;57.196;-2.100;2024-03-23T01:45:52;7.82;66.93
22069;DHT22;13887;57.196;-2.100;2024-03-23T01:48:20;7.81;66.85
22069;DHT22;13887;57.196;-2.100;2024-03-23T01:50:46;7.82;67.24
22069;DHT22;13887;57.196;-2.100;2024-03-23T01:53:14;7.83;67.30
22069;DHT22;13887;57.196;-2.100;2024-03-23T01:55:43;7.84;67.11
22069;DHT22;13887;57.196;-2.100;2024-03-23T01:58:09;7.81;67.37
22069;DHT22;13887;57.196;-2.100;2024-03-23T02:00:36;7.79;67.04
22069;DHT22;13887;57.196;-2.100;2024-03-23T02:03:02;7.81;67.40
22069;DHT22;13887;57.196;-2.100;2024-03-23T02:05:47;7.79;67.40
22069;DHT22;13887;57.196;-2.100;2024-03-23T02:08:13;7.81;67.13
22069;DHT22;13887;57.196;-2.100;2024-03-23T02:10:40;7.79;67.39
22069;DHT22;13887;57.196;-2.100;2024-03-23T02:13:06;7.79;67.46
22069;DHT22;13887;57.196;-2.100;2024-03-23T02:15:32;7.77;67.29
22069;DHT22;13887;57.196;-2.100;2024-03-23T02:17:59;7.75;67.58
22069;DHT22;13887;57.196;-2.100;2024-03-23T02:20:25;7.78;67.53
22069;DHT22;13887;57.196;-2.100;2024-03-23T02:22:53;7.78;67.43
22069;DHT22;13887;57.196;-2.100;2024-03-23T02:25:19;7.73;67.10
22069;DHT22;13887;57.196;-2.100;2024-03-23T02:27:45;7.78;67.02
22069;DHT22;13887;57.196;-2.100;2024-03-23T02:30:11;7.73;67.39
22069;DHT22;13887;57.196;-2.100;2024-03-23T02:32:37;7.74;67.79
22069;DHT22;13887;57.196;-2.100;2024-03-23T02:35:03;7.74;67.49
22069;DHT22;13887;57.196;-2.100;2024-03-23T02:37:30;7.76;66.66
22069;DHT22;13887;57.196;-2.100;2024-03-23T02:39:56;7.72;67.69
22069;DHT22;13887;57.196;-2.100;2024-03-23T02:42:22;7.71;67.14
22069;DHT22;13887;57.196;-2.100;2024-03-23T02:44:48;7.67;67.52
22069;DHT22;13887;57.196;-2.100;2024-03-23T02:47:14;7.73;67.42
22069;DHT22;13887;57.196;-2.100;2024-03-23T02:49:40;7.71;67.18
22069;DHT22;13887;57.196;-2.100;2024-03-23T02:52:06;7.68;67.39
22069;DHT22;13887;57.196;-2.100;2024-03-23T02:54:32;7.72;67.27
22069;DHT22;13887;57.196;-2.100;2024-03-23T02:56:58;7.71;66.93
22069;DHT22;13887;57.196;-2.100;2024-03-23T02:59:25;7.72;67.12
22069;DHT22;13887;57.196;-2.100;2024-03-23T03:01:50;7.73;67.23
22069;DHT22;13887;57.196;-2.100;2024-03-23T03:04:16;7.73;67.41
22069;DHT22;13887;57.196;-2.100;2024-03-23T03:06:46;7.74;67.23
22069;DHT22;13887;57.196;-2.100;2024-03-23T03:09:12;7.73;66.60
22069;DHT22;13887;57.196;-2.100;2024-03-23T03:11:38;7.69;67.16
22069;DHT22;13887;57.196;-2.100;2024-03-23T03:14:04;7.72;67.03
22069;DHT22;13887;57.196;-2.100;2024-03-23T03:16:33;7.72;67.14
22069;DHT22;13887;57.196;-2.100;2024-03-23T03:18:59;7.73;66.95
22069;DHT22;13887;57.196;-2.100;2024-03-23T03:21:26;7.71;67.17
22069;DHT22;13887;57.196;-2.100;2024-03-23T03:23:52;7.73;67.35
22069;DHT22;13887;57.196;-2.100;2024-03-23T03:26:19;7.73;67.01
22069;DHT22;13887;57.196;-2.100;2024-03-23T03:28:45;7.72;66.89
22069;DHT22;13887;57.196;-2.100;2024-03-23T03:31:18;7.73;66.86
22069;DHT22;13887;57.196;-2.100;2024-03-23T03:33:44;7.73;67.39
22069;DHT22;13887;57.196;-2.100;2024-03-23T03:36:10;7.71;67.12
22069;DHT22;13887;57.196;-2.100;2024-03-23T03:38:37;7.73;67.32
22069;DHT22;13887;57.196;-2.100;2024-03-23T03:41:04;7.70;67.41
22069;DHT22;13887;57.196;-2.100;2024-03-23T03:43:32;7.71;67.35
22069;DHT22;13887;57.196;-2.100;2024-03-23T03:45:59;7.73;67.45
22069;DHT22;13887;57.196;-2.100;2024-03-23T03:48:26;7.73;67.45
22069;DHT22;13887;57.196;-2.100;2024-03-23T03:50:53;7.74;67.32
22069;DHT22;13887;57.196;-2.100;2024-03-23T03:53:19;7.73;67.45
22069;DHT22;13887;57.196;-2.100;2024-03-23T03:55:45;7.74;67.45
22069;DHT22;13887;57.196;-2.100;2024-03-23T03:58:12;7.73;67.56
22069;DHT22;13887;57.196;-2.100;2024-03-23T04:00:38;7.71;67.77
22069;DHT22;13887;57.196;-2.100;2024-03-23T04:03:04;7.71;67.85
22069;DHT22;13887;57.196;-2.100;2024-03-23T04:05:30;7.70;67.86
22069;DHT22;13887;57.196;-2.100;2024-03-23T04:07:56;7.70;68.00
22069;DHT22;13887;57.196;-2.100;2024-03-23T04:10:22;7.74;67.86
22069;DHT22;13887;57.196;-2.100;2024-03-23T04:12:48;7.75;67.94
22069;DHT22;13887;57.196;-2.100;2024-03-23T04:15:14;7.71;67.98
22069;DHT22;13887;57.196;-2.100;2024-03-23T04:17:40;7.73;67.82
22069;DHT22;13887;57.196;-2.100;2024-03-23T04:20:09;7.71;68.23
22069;DHT22;13887;57.196;-2.100;2024-03-23T04:22:37;7.70;68.20
22069;DHT22;13887;57.196;-2.100;2024-03-23T04:25:04;7.72;68.20
22069;DHT22;13887;57.196;-2.100;2024-03-23T04:27:33;7.70;68.51
22069;DHT22;13887;57.196;-2.100;2024-03-23T04:29:59;7.67;68.53
22069;DHT22;13887;57.196;-2.100;2024-03-23T04:32:27;7.67;68.58
22069;DHT22;13887;57.196;-2.100;2024-03-23T04:34:54;7.60;68.71
22069;DHT22;13887;57.196;-2.100;2024-03-23T04:37:20;7.63;68.84
22069;DHT22;13887;57.196;-2.100;2024-03-23T04:39:47;7.65;68.72
22069;DHT22;13887;57.196;-2.100;2024-03-23T04:42:15;7.64;68.64
22069;DHT22;13887;57.196;-2.100;2024-03-23T04:44:41;7.63;68.80
22069;DHT22;13887;57.196;-2.100;2024-03-23T04:47:07;7.64;68.60
22069;DHT22;13887;57.196;-2.100;2024-03-23T04:49:33;7.64;68.98
22069;DHT22;13887;57.196;-2.100;2024-03-23T04:52:00;7.68;68.99
22069;DHT22;13887;57.196;-2.100;2024-03-23T04:54:26;7.65;69.07
22069;DHT22;13887;57.196;-2.100;2024-03-23T04:56:52;7.65;68.97
22069;DHT22;13887;57.196;-2.100;2024-03-23T04:59:18;7.63;69.16
22069;DHT22;13887;57.196;-2.100;2024-03-23T05:01:44;7.59;68.86
22069;DHT22;13887;57.196;-2.100;2024-03-23T05:04:10;7.58;69.06
22069;DHT22;13887;57.196;-2.100;2024-03-23T05:06:36;7.57;69.17
22069;DHT22;13887;57.196;-2.100;2024-03-23T05:09:02;7.58;68.75
22069;DHT22;13887;57.196;-2.100;2024-03-23T05:11:33;7.57;69.20
22069;DHT22;13887;57.196;-2.100;2024-03-23T05:13:59;7.57;69.22
22069;DHT22;13887;57.196;-2.100;2024-03-23T05:16:26;7.56;68.95
22069;DHT22;13887;57.196;-2.100;2024-03-23T05:18:52;7.58;69.39
22069;DHT22;13887;57.196;-2.100;2024-03-23T05:21:18;7.59;69.01
22069;DHT22;13887;57.196;-2.100;2024-03-23T05:23:44;7.59;69.16
22069;DHT22;13887;57.196;-2.100;2024-03-23T05:26:10;7.57;69.22
22069;DHT22;13887;57.196;-2.100;2024-03-23T05:28:36;7.50;69.43
22069;DHT22;13887;57.196;-2.100;2024-03-23T05:31:02;7.54;69.26
22069;DHT22;13887;57.196;-2.100;2024-03-23T05:33:29;7.53;69.22
22069;DHT22;13887;57.196;-2.100;2024-03-23T05:35:59;7.49;69.28
22069;DHT22;13887;57.196;-2.100;2024-03-23T05:38:25;7.48;69.90
22069;DHT22;13887;57.196;-2.100;2024-03-23T05:40:58;7.50;69.74
22069;DHT22;13887;57.196;-2.100;2024-03-23T05:43:25;7.54;69.44
22069;DHT22;13887;57.196;-2.100;2024-03-23T05:48:21;7.57;69.57
22069;DHT22;13887;57.196;-2.100;2024-03-23T05:50:49;7.53;69.67
22069;DHT22;13887;57.196;-2.100;2024-03-23T05:53:16;7.52;69.39
22069;DHT22;13887;57.196;-2.100;2024-03-23T05:55:42;7.52;69.28
22069;DHT22;13887;57.196;-2.100;2024-03-23T05:58:08;7.53;69.55
22069;DHT22;13887;57.196;-2.100;2024-03-23T06:00:34;7.55;69.61
22069;DHT22;13887;57.196;-2.100;2024-03-23T06:03:00;7.53;69.80
22069;DHT22;13887;57.196;-2.100;2024-03-23T06:05:26;7.54;69.42
22069;DHT22;13887;57.196;-2.100;2024-03-23T06:07:53;7.50;69.45
22069;DHT22;13887;57.196;-2.100;2024-03-23T06:10:19;7.49;69.62
22069;DHT22;13887;57.196;-2.100;2024-03-23T06:12:48;7.46;69.82
22069;DHT22;13887;57.196;-2.100;2024-03-23T06:15:16;7.53;69.74
22069;DHT22;13887;57.196;-2.100;2024-03-23T06:17:42;7.49;69.55
22069;DHT22;13887;57.196;-2.100;2024-03-23T06:20:08;7.49;69.55
22069;DHT22;13887;57.196;-2.100;2024-03-23T06:22:36;7.49;69.13
22069;DHT22;13887;57.196;-2.100;2024-03-23T06:25:02;7.49;69.76
22069;DHT22;13887;57.196;-2.100;2024-03-23T06:27:28;7.53;69.29
22069;DHT22;13887;57.196;-2.100;2024-03-23T06:29:55;7.50;69.54
22069;DHT22;13887;57.196;-2.100;2024-03-23T06:32:21;7.49;69.39
22069;DHT22;13887;57.196;-2.100;2024-03-23T06:34:47;7.45;69.50
22069;DHT22;13887;57.196;-2.100;2024-03-23T06:37:13;7.42;69.49
22069;DHT22;13887;57.196;-2.100;2024-03-23T06:39:39;7.48;69.57
22069;DHT22;13887;57.196;-2.100;2024-03-23T06:42:05;7.46;69.50
22069;DHT22;13887;57.196;-2.100;2024-03-23T06:44:31;7.45;69.35
22069;DHT22;13887;57.196;-2.100;2024-03-23T06:46:57;7.41;69.80
22069;DHT22;13887;57.196;-2.100;2024-03-23T06:49:24;7.43;69.58
22069;DHT22;13887;57.196;-2.100;2024-03-23T06:51:50;7.43;69.59
22069;DHT22;13887;57.196;-2.100;2024-03-23T06:54:19;7.46;69.52
22069;DHT22;13887;57.196;-2.100;2024-03-23T06:56:46;7.52;69.13
22069;DHT22;13887;57.196;-2.100;2024-03-23T06:59:12;7.52;69.22
22069;DHT22;13887;57.196;-2.100;2024-03-23T07:01:38;7.55;69.36
22069;DHT22;13887;57.196;-2.100;2024-03-23T07:04:04;7.53;69.27
22069;DHT22;13887;57.196;-2.100;2024-03-23T07:06:31;7.56;69.38
22069;DHT22;13887;57.196;-2.100;2024-03-23T07:08:57;7.56;69.28
22069;DHT22;13887;57.196;-2.100;2024-03-23T07:11:23;7.58;69.38
22069;DHT22;13887;57.196;-2.100;2024-03-23T07:13:51;7.56;69.54
22069;DHT22;13887;57.196;-2.100;2024-03-23T07:16:17;7.55;69.52
22069;DHT22;13887;57.196;-2.100;2024-03-23T07:18:43;7.53;69.45
22069;DHT22;13887;57.196;-2.100;2024-03-23T07:21:09;7.54;69.74
22069;DHT22;13887;57.196;-2.100;2024-03-23T07:23:35;7.59;69.45
22069;DHT22;13887;57.196;-2.100;2024-03-23T07:26:05;7.54;69.47
22069;DHT22;13887;57.196;-2.100;2024-03-23T07:28:31;7.42;69.53
22069;DHT22;13887;57.196;-2.100;2024-03-23T07:31:12;7.49;69.45
22069;DHT22;13887;57.196;-2.100;2024-03-23T07:33:44;7.55;69.39
22069;DHT22;13887;57.196;-2.100;2024-03-23T07:36:11;7.57;69.30
22069;DHT22;13887;57.196;-2.100;2024-03-23T07:38:39;7.58;69.20
22069;DHT22;13887;57.196;-2.100;2024-03-23T07:41:07;7.62;69.61
22069;DHT22;13887;57.196;-2.100;2024-03-23T07:43:33;7.63;69.37
22069;DHT22;13887;57.196;-2.100;2024-03-23T07:45:59;7.62;69.45
22069;DHT22;13887;57.196;-2.100;2024-03-23T07:48:27;7.64;69.45
22069;DHT22;13887;57.196;-2.100;2024-03-23T07:53:29;7.60;69.48
22069;DHT22;13887;57.196;-2.100;2024-03-23T07:56:02;7.60;69.73
22069;DHT22;13887;57.196;-2.100;2024-03-23T07:58:28;7.60;69.95
22069;DHT22;13887;57.196;-2.100;2024-03-23T08:00:55;7.55;69.75
22069;DHT22;13887;57.196;-2.100;2024-03-23T08:03:22;7.54;69.51
22069;DHT22;13887;57.196;-2.100;2024-03-23T08:05:48;7.56;69.81
22069;DHT22;13887;57.196;-2.100;2024-03-23T08:08:15;7.58;69.97
22069;DHT22;13887;57.196;-2.100;2024-03-23T08:10:51;7.57;69.78
22069;DHT22;13887;57.196;-2.100;2024-03-23T08:13:18;7.57;69.75
22069;DHT22;13887;57.196;-2.100;2024-03-23T08:15:44;7.59;69.49
22069;DHT22;13887;57.196;-2.100;2024-03-23T08:18:13;7.55;69.70
22069;DHT22;13887;57.196;-2.100;2024-03-23T08:20:41;7.57;69.71
22069;DHT22;13887;57.196;-2.100;2024-03-23T08:23:08;7.61;69.71
22069;DHT22;13887;57.196;-2.100;2024-03-23T08:25:35;7.62;69.50
22069;DHT22;13887;57.196;-2.100;2024-03-23T08:28:01;7.62;69.52
22069;DHT22;13887;57.196;-2.100;2024-03-23T08:30:28;7.65;69.64
22069;DHT22;13887;57.196;-2.100;2024-03-23T08:32:54;7.70;69.69
22069;DHT22;13887;57.196;-2.100;2024-03-23T08:35:20;7.71;69.65
22069;DHT22;13887;57.196;-2.100;2024-03-23T08:37:46;7.73;69.87
22069;DHT22;13887;57.196;-2.100;2024-03-23T08:40:12;7.72;69.50
22069;DHT22;13887;57.196;-2.100;2024-03-23T08:42:38;7.73;69.78
22069;DHT22;13887;57.196;-2.100;2024-03-23T08:45:04;7.76;69.71
22069;DHT22;13887;57.196;-2.100;2024-03-23T08:47:36;7.75;69.58
22069;DHT22;13887;57.196;-2.100;2024-03-23T08:50:02;7.75;69.67
22069;DHT22;13887;57.196;-2.100;2024-03-23T08:52:28;7.75;69.73
22069;DHT22;13887;57.196;-2.100;2024-03-23T08:54:55;7.74;69.67
22069;DHT22;13887;57.196;-2.100;2024-03-23T08:57:23;7.77;69.53
22069;DHT22;13887;57.196;-2.100;2024-03-23T08:59:49;7.77;69.76
22069;DHT22;13887;57.196;-2.100;2024-03-23T09:02:15;7.78;69.71
22069;DHT22;13887;57.196;-2.100;2024-03-23T09:04:41;7.83;69.83
22069;DHT22;13887;57.196;-2.100;2024-03-23T09:07:07;7.84;69.94
22069;DHT22;13887;57.196;-2.100;2024-03-23T09:09:34;7.84;70.17
22069;DHT22;13887;57.196;-2.100;2024-03-23T09:11:59;7.82;70.42
22069;DHT22;13887;57.196;-2.100;2024-03-23T09:14:26;7.81;70.60
22069;DHT22;13887;57.196;-2.100;2024-03-23T09:16:52;7.82;70.77
22069;DHT22;13887;57.196;-2.100;2024-03-23T09:19:18;7.81;70.92
22069;DHT22;13887;57.196;-2.100;2024-03-23T09:21:44;7.81;70.97
22069;DHT22;13887;57.196;-2.100;2024-03-23T09:24:10;7.81;71.06
22069;DHT22;13887;57.196;-2.100;2024-03-23T09:26:36;7.84;71.04
22069;DHT22;13887;57.196;-2.100;2024-03-23T09:29:02;7.86;71.04
22069;DHT22;13887;57.196;-2.100;2024-03-23T09:31:28;7.84;71.24
22069;DHT22;13887;57.196;-2.100;2024-03-23T09:33:55;7.84;71.44
22069;DHT22;13887;57.196;-2.100;2024-03-23T09:36:21;7.85;71.68
22069;DHT22;13887;57.196;-2.100;2024-03-23T09:38:47;7.85;71.82
22069;DHT22;13887;57.196;-2.100;2024-03-23T09:41:13;7.82;71.98
22069;DHT22;13887;57.196;-2.100;2024-03-23T09:43:40;7.84;72.07
22069;DHT22;13887;57.196;-2.100;2024-03-23T09:46:06;7.83;72.23
22069;DHT22;13887;57.196;-2.100;2024-03-23T09:48:33;7.81;72.41
22069;DHT22;13887;57.196;-2.100;2024-03-23T09:50:59;7.84;72.38
22069;DHT22;13887;57.196;-2.100;2024-03-23T09:53:25;7.88;72.38
22069;DHT22;13887;57.196;-2.100;2024-03-23T09:55:52;7.89;72.16
22069;DHT22;13887;57.196;-2.100;2024-03-23T09:58:18;7.91;72.19
22069;DHT22;13887;57.196;-2.100;2024-03-23T10:00:44;7.96;72.17
22069;DHT22;13887;57.196;-2.100;2024-03-23T10:03:11;8.00;72.32
22069;DHT22;13887;57.196;-2.100;2024-03-23T10:05:37;8.00;72.26
22069;DHT22;13887;57.196;-2.100;2024-03-23T10:10:42;7.99;72.16
22069;DHT22;13887;57.196;-2.100;2024-03-23T10:13:08;7.97;72.44
22069;DHT22;13887;57.196;-2.100;2024-03-23T10:15:35;7.98;72.67
22069;DHT22;13887;57.196;-2.100;2024-03-23T10:18:18;7.99;72.45
22069;DHT22;13887;57.196;-2.100;2024-03-23T10:21:09;8.00;72.51
22069;DHT22;13887;57.196;-2.100;2024-03-23T10:23:43;8.01;72.51
22069;DHT22;13887;57.196;-2.100;2024-03-23T10:26:20;8.01;72.80
22069;DHT22;13887;57.196;-2.100;2024-03-23T10:28:58;8.02;72.49
22069;DHT22;13887;57.196;-2.100;2024-03-23T10:31:28;8.05;72.30
22069;DHT22;13887;57.196;-2.100;2024-03-23T10:33:54;8.07;72.59
22069;DHT22;13887;57.196;-2.100;2024-03-23T10:36:24;8.12;72.58
22069;DHT22;13887;57.196;-2.100;2024-03-23T10:38:54;8.13;72.19
22069;DHT22;13887;57.196;-2.100;2024-03-23T10:41:20;8.13;72.00
22069;DHT22;13887;57.196;-2.100;2024-03-23T10:43:47;8.13;71.75
22069;DHT22;13887;57.196;-2.100;2024-03-23T10:46:14;8.16;71.95
22069;DHT22;13887;57.196;-2.100;2024-03-23T10:48:40;8.19;71.87
22069;DHT22;13887;57.196;-2.100;2024-03-23T10:51:10;8.20;71.74
22069;DHT22;13887;57.196;-2.100;2024-03-23T10:53:36;8.21;71.83
22069;DHT22;13887;57.196;-2.100;2024-03-23T10:56:04;8.21;71.80
22069;DHT22;13887;57.196;-2.100;2024-03-23T10:58:36;8.24;72.25
22069;DHT22;13887;57.196;-2.100;2024-03-23T11:01:03;8.20;72.80
22069;DHT22;13887;57.196;-2.100;2024-03-23T11:03:36;8.20;73.03
22069;DHT22;13887;57.196;-2.100;2024-03-23T11:06:07;8.20;72.83
22069;DHT22;13887;57.196;-2.100;2024-03-23T11:08:40;8.21;72.67
22069;DHT22;13887;57.196;-2.100;2024-03-23T11:11:24;8.19;72.85
22069;DHT22;13887;57.196;-2.100;2024-03-23T11:13:52;8.20;72.68
22069;DHT22;13887;57.196;-2.100;2024-03-23T11:18:47;8.18;72.35
22069;DHT22;13887;57.196;-2.100;2024-03-23T11:21:52;8.18;71.96
22069;DHT22;13887;57.196;-2.100;2024-03-23T11:24:21;8.14;72.09
22069;DHT22;13887;57.196;-2.100;2024-03-23T11:26:48;8.16;72.01
22069;DHT22;13887;57.196;-2.100;2024-03-23T11:29:16;8.20;70.87
22069;DHT22;13887;57.196;-2.100;2024-03-23T11:31:50;8.18;71.19
22069;DHT22;13887;57.196;-2.100;2024-03-23T11:34:17;8.21;71.23
22069;DHT22;13887;57.196;-2.100;2024-03-23T11:36:44;8.27;71.15
22069;DHT22;13887;57.196;-2.100;2024-03-23T11:39:15;8.27;71.24
22069;DHT22;13887;57.196;-2.100;2024-03-23T11:44:20;8.30;70.98
22069;DHT22;13887;57.196;-2.100;2024-03-23T11:46:46;8.30;71.06
22069;DHT22;13887;57.196;-2.100;2024-03-23T11:49:26;8.31;70.55
22069;DHT22;13887;57.196;-2.100;2024-03-23T11:51:53;8.36;70.03
22069;DHT22;13887;57.196;-2.100;2024-03-23T11:54:24;8.33;70.24
22069;DHT22;13887;57.196;-2.100;2024-03-23T11:56:57;8.39;69.94
22069;DHT22;13887;57.196;-2.100;2024-03-23T11:59:50;8.42;69.78
22069;DHT22;13887;57.196;-2.100;2024-03-23T12:02:18;8.41;69.87
22069;DHT22;13887;57.196;-2.100;2024-03-23T12:04:44;8.41;69.94
22069;DHT22;13887;57.196;-2.100;2024-03-23T12:07:17;8.39;70.11
22069;DHT22;13887;57.196;-2.100;2024-03-23T12:10:03;8.42;70.42
22069;DHT22;13887;57.196;-2.100;2024-03-23T12:12:29;8.44;71.94
22069;DHT22;13887;57.196;-2.100;2024-03-23T12:15:06;8.41;72.11
22069;DHT22;13887;57.196;-2.100;2024-03-23T12:17:32;8.42;72.46
22069;DHT22;13887;57.196;-2.100;2024-03-23T12:19:59;8.42;73.34
22069;DHT22;13887;57.196;-2.100;2024-03-23T12:22:25;8.41;73.58
22069;DHT22;13887;57.196;-2.100;2024-03-23T12:24:51;8.35;74.05
22069;DHT22;13887;57.196;-2.100;2024-03-23T12:27:17;8.28;74.25
22069;DHT22;13887;57.196;-2.100;2024-03-23T12:29:43;8.26;74.20
22069;DHT22;13887;57.196;-2.100;2024-03-23T12:32:12;8.29;74.25
22069;DHT22;13887;57.196;-2.100;2024-03-23T12:34:38;8.28;74.28
22069;DHT22;13887;57.196;-2.100;2024-03-23T12:37:05;8.29;74.32
22069;DHT22;13887;57.196;-2.100;2024-03-23T12:39:32;8.27;74.31
22069;DHT22;13887;57.196;-2.100;2024-03-23T12:41:58;8.30;74.17
22069;DHT22;13887;57.196;-2.100;2024-03-23T12:44:24;8.31;74.30
22069;DHT22;13887;57.196;-2.100;2024-03-23T12:46:50;8.33;74.12
22069;DHT22;13887;57.196;-2.100;2024-03-23T12:49:16;8.34;74.13
22069;DHT22;13887;57.196;-2.100;2024-03-23T12:51:55;8.35;73.96
22069;DHT22;13887;57.196;-2.100;2024-03-23T12:54:22;8.36;74.11
22069;DHT22;13887;57.196;-2.100;2024-03-23T12:56:48;8.42;73.51
22069;DHT22;13887;57.196;-2.100;2024-03-23T12:59:14;8.37;73.90
22069;DHT22;13887;57.196;-2.100;2024-03-23T13:01:42;8.41;73.70
22069;DHT22;13887;57.196;-2.100;2024-03-23T13:04:09;8.45;73.51
22069;DHT22;13887;57.196;-2.100;2024-03-23T13:06:35;8.46;73.81
22069;DHT22;13887;57.196;-2.100;2024-03-23T13:09:02;8.37;75.59
22069;DHT22;13887;57.196;-2.100;2024-03-23T13:11:29;8.35;76.24
22069;DHT22;13887;57.196;-2.100;2024-03-23T13:13:56;8.32;76.51
22069;DHT22;13887;57.196;-2.100;2024-03-23T13:16:22;8.33;76.66
22069;DHT22;13887;57.196;-2.100;2024-03-23T13:18:48;8.36;76.41
22069;DHT22;13887;57.196;-2.100;2024-03-23T13:21:14;8.38;76.55
22069;DHT22;13887;57.196;-2.100;2024-03-23T13:23:40;8.39;75.97
22069;DHT22;13887;57.196;-2.100;2024-03-23T13:26:08;8.43;75.85
22069;DHT22;13887;57.196;-2.100;2024-03-23T13:28:34;8.44;75.36
22069;DHT22;13887;57.196;-2.100;2024-03-23T13:31:01;8.35;75.73
22069;DHT22;13887;57.196;-2.100;2024-03-23T13:33:30;8.30;76.22
22069;DHT22;13887;57.196;-2.100;2024-03-23T13:35:58;8.30;76.68
22069;DHT22;13887;57.196;-2.100;2024-03-23T13:38:25;8.29;76.66
22069;DHT22;13887;57.196;-2.100;2024-03-23T13:40:58;8.32;76.57
22069;DHT22;13887;57.196;-2.100;2024-03-23T13:43:25;8.32;76.68
22069;DHT22;13887;57.196;-2.100;2024-03-23T13:45:58;8.33;76.67
22069;DHT22;13887;57.196;-2.100;2024-03-23T13:48:27;8.31;77.26
22069;DHT22;13887;57.196;-2.100;2024-03-23T13:51:00;8.32;77.02
22069;DHT22;13887;57.196;-2.100;2024-03-23T13:53:26;8.37;77.14
22069;DHT22;13887;57.196;-2.100;2024-03-23T13:55:52;8.38;76.94
22069;DHT22;13887;57.196;-2.100;2024-03-23T13:58:19;8.37;77.24
22069;DHT22;13887;57.196;-2.100;2024-03-23T14:00:45;8.34;77.26
22069;DHT22;13887;57.196;-2.100;2024-03-23T14:03:12;8.32;77.85
22069;DHT22;13887;57.196;-2.100;2024-03-23T14:05:39;8.30;77.47
22069;DHT22;13887;57.196;-2.100;2024-03-23T14:08:09;8.27;77.65
22069;DHT22;13887;57.196;-2.100;2024-03-23T14:10:35;8.24;77.34
22069;DHT22;13887;57.196;-2.100;2024-03-23T14:13:05;8.22;77.26
22069;DHT22;13887;57.196;-2.100;2024-03-23T14:15:31;8.21;77.51
22069;DHT22;13887;57.196;-2.100;2024-03-23T14:17:58;8.24;77.60
22069;DHT22;13887;57.196;-2.100;2024-03-23T14:20:24;8.27;77.50
22069;DHT22;13887;57.196;-2.100;2024-03-23T14:22:51;8.30;77.38
22069;DHT22;13887;57.196;-2.100;2024-03-23T14:25:18;8.32;77.66
22069;DHT22;13887;57.196;-2.100;2024-03-23T14:27:45;8.36;77.69
22069;DHT22;13887;57.196;-2.100;2024-03-23T14:30:11;8.44;77.06
22069;DHT22;13887;57.196;-2.100;2024-03-23T14:32:38;8.44;77.03
22069;DHT22;13887;57.196;-2.100;2024-03-23T14:35:04;8.44;77.34
22069;DHT22;13887;57.196;-2.100;2024-03-23T14:37:31;8.45;77.02
22069;DHT22;13887;57.196;-2.100;2024-03-23T14:39:58;8.44;77.45
22069;DHT22;13887;57.196;-2.100;2024-03-23T14:42:24;8.43;77.16
22069;DHT22;13887;57.196;-2.100;2024-03-23T14:44:51;8.47;76.20
22069;DHT22;13887;57.196;-2.100;2024-03-23T14:47:18;8.51;76.05
22069;DHT22;13887;57.196;-2.100;2024-03-23T14:49:45;8.45;76.12
22069;DHT22;13887;57.196;-2.100;2024-03-23T14:52:19;8.38;76.51
22069;DHT22;13887;57.196;-2.100;2024-03-23T14:54:46;8.26;76.80
22069;DHT22;13887;57.196;-2.100;2024-03-23T14:57:12;8.21;76.61
22069;DHT22;13887;57.196;-2.100;2024-03-23T14:59:38;8.20;76.42
22069;DHT22;13887;57.196;-2.100;2024-03-23T15:02:05;8.13;76.33
22069;DHT22;13887;57.196;-2.100;2024-03-23T15:04:31;8.08;76.57
22069;DHT22;13887;57.196;-2.100;2024-03-23T15:06:57;8.09;76.60
22069;DHT22;13887;57.196;-2.100;2024-03-23T15:09:23;8.15;76.63
22069;DHT22;13887;57.196;-2.100;2024-03-23T15:11:49;8.16;76.44
22069;DHT22;13887;57.196;-2.100;2024-03-23T15:14:15;8.16;76.39
22069;DHT22;13887;57.196;-2.100;2024-03-23T15:16:41;8.14;76.57
22069;DHT22;13887;57.196;-2.100;2024-03-23T15:19:10;8.15;76.66
22069;DHT22;13887;57.196;-2.100;2024-03-23T15:21:36;8.18;76.66
22069;DHT22;13887;57.196;-2.100;2024-03-23T15:24:02;8.20;76.90
22069;DHT22;13887;57.196;-2.100;2024-03-23T15:26:28;8.18;77.00
22069;DHT22;13887;57.196;-2.100;2024-03-23T15:28:54;8.17;77.28
22069;DHT22;13887;57.196;-2.100;2024-03-23T15:31:23;8.17;77.39
22069;DHT22;13887;57.196;-2.100;2024-03-23T15:33:50;8.20;77.32
22069;DHT22;13887;57.196;-2.100;2024-03-23T15:36:16;8.22;77.50
22069;DHT22;13887;57.196;-2.100;2024-03-23T15:38:43;8.23;77.18
22069;DHT22;13887;57.196;-2.100;2024-03-23T15:41:09;8.22;76.94
22069;DHT22;13887;57.196;-2.100;2024-03-23T15:43:35;8.17;76.94
22069;DHT22;13887;57.196;-2.100;2024-03-23T15:46:04;8.21;77.05
22069;DHT22;13887;57.196;-2.100;2024-03-23T15:48:30;8.17;77.19
22069;DHT22;13887;57.196;-2.100;2024-03-23T15:50:58;8.13;77.35
22069;DHT22;13887;57.196;-2.100;2024-03-23T15:53:25;8.09;77.62
22069;DHT22;13887;57.196;-2.100;2024-03-23T15:55:58;8.04;77.85
22069;DHT22;13887;57.196;-2.100;2024-03-23T15:58:25;8.01;77.89
22069;DHT22;13887;57.196;-2.100;2024-03-23T16:01:09;8.02;77.79
22069;DHT22;13887;57.196;-2.100;2024-03-23T16:03:37;8.02;77.31
22069;DHT22;13887;57.196;-2.100;2024-03-23T16:06:04;8.00;77.63
22069;DHT22;13887;57.196;-2.100;2024-03-23T16:08:31;8.04;77.50
22069;DHT22;13887;57.196;-2.100;2024-03-23T16:11:04;8.09;77.16
22069;DHT22;13887;57.196;-2.100;2024-03-23T16:13:31;8.08;77.10
22069;DHT22;13887;57.196;-2.100;2024-03-23T16:15:58;8.11;76.82
22069;DHT22;13887;57.196;-2.100;2024-03-23T16:18:25;8.09;76.73
22069;DHT22;13887;57.196;-2.100;2024-03-23T16:21:12;8.08;76.80
22069;DHT22;13887;57.196;-2.100;2024-03-23T16:23:38;8.08;76.70
22069;DHT22;13887;57.196;-2.100;2024-03-23T16:26:06;8.08;76.38
22069;DHT22;13887;57.196;-2.100;2024-03-23T16:28:34;8.13;76.28
22069;DHT22;13887;57.196;-2.100;2024-03-23T16:31:05;8.08;75.78
22069;DHT22;13887;57.196;-2.100;2024-03-23T16:33:32;8.06;75.93
22069;DHT22;13887;57.196;-2.100;2024-03-23T16:36:00;7.96;75.89
22069;DHT22;13887;57.196;-2.100;2024-03-23T16:38:27;7.96;76.02